sensor_id;sensor_type;location;lat;lon;timestamp;P1;durP1;ratioP1;P2;durP2;ratioP2
15285;SDS011;7744;52.172;10.668;2023-05-16T00:00:58;8.97;;;7.77;;
15285;SDS011;7744;52.172;10.668;2023-05-16T00:03:23;8.23;;;7.50;;
15285;SDS011;7744;52.172;10.668;2023-05-16T00:05:49;8.57;;;7.77;;
15285;SDS011;7744;52.172;10.668;2023-05-16T00:08:15;7.73;;;7.00;;
15285;SDS011;7744;52.172;10.668;2023-05-16T00:10:41;9.03;;;7.33;;
15285;SDS011;7744;52.172;10.668;2023-05-16T00:13:07;7.87;;;7.07;;
15285;SDS011;7744;52.172;10.668;2023-05-16T00:15:33;8.17;;;7.37;;
15285;SDS011;7744;52.172;10.668;2023-05-16T00:17:59;7.37;;;6.77;;
15285;SDS011;7744;52.172;10.668;2023-05-16T00:20:25;8.53;;;7.33;;
15285;SDS011;7744;52.172;10.668;2023-05-16T00:22:52;7.27;;;6.57;;
15285;SDS011;7744;52.172;10.668;2023-05-16T00:25:18;8.17;;;7.37;;
15285;SDS011;7744;52.172;10.668;2023-05-16T00:27:44;7.40;;;6.70;;
15285;SDS011;7744;52.172;10.668;2023-05-16T00:30:09;7.90;;;7.10;;
15285;SDS011;7744;52.172;10.668;2023-05-16T00:32:35;7.57;;;6.87;;
15285;SDS011;7744;52.172;10.668;2023-05-16T00:35:01;8.43;;;7.63;;
15285;SDS011;7744;52.172;10.668;2023-05-16T00:37:27;7.90;;;7.07;;
15285;SDS011;7744;52.172;10.668;2023-05-16T00:39:53;8.00;;;7.30;;
15285;SDS011;7744;52.172;10.668;2023-05-16T00:42:19;8.47;;;7.57;;
15285;SDS011;7744;52.172;10.668;2023-05-16T00:44:45;8.67;;;7.83;;
15285;SDS011;7744;52.172;10.668;2023-05-16T00:47:11;8.57;;;7.37;;
15285;SDS011;7744;52.172;10.668;2023-05-16T00:49:37;9.53;;;8.27;;
15285;SDS011;7744;52.172;10.668;2023-05-16T00:52:02;8.90;;;7.23;;
15285;SDS011;7744;52.172;10.668;2023-05-16T00:54:30;7.63;;;6.93;;
15285;SDS011;7744;52.172;10.668;2023-05-16T00:56:55;7.60;;;6.90;;
15285;SDS011;7744;52.172;10.668;2023-05-16T00:59:24;6.80;;;6.20;;
15285;SDS011;7744;52.172;10.668;2023-05-16T01:01:51;6.60;;;6.00;;
15285;SDS011;7744;52.172;10.668;2023-05-16T01:04:17;6.00;;;5.50;;
15285;SDS011;7744;52.172;10.668;2023-05-16T01:06:43;6.33;;;5.73;;
15285;SDS011;7744;52.172;10.668;2023-05-16T01:09:09;6.63;;;5.90;;
15285;SDS011;7744;52.172;10.668;2023-05-16T01:11:46;6.70;;;6.10;;
15285;SDS011;7744;52.172;10.668;2023-05-16T01:22:34;5.97;;;5.40;;
15285;SDS011;7744;52.172;10.668;2023-05-16T01:25:12;6.27;;;5.50;;
15285;SDS011;7744;52.172;10.668;2023-05-16T01:27:51;8.32;;;5.63;;
15285;SDS011;7744;52.172;10.668;2023-05-16T01:30:17;6.30;;;5.50;;
15285;SDS011;7744;52.172;10.668;2023-05-16T01:32:44;6.30;;;5.80;;
15285;SDS011;7744;52.172;10.668;2023-05-16T01:35:11;7.13;;;6.40;;
15285;SDS011;7744;52.172;10.668;2023-05-16T01:37:47;7.47;;;6.40;;
15285;SDS011;7744;52.172;10.668;2023-05-16T01:40:44;6.20;;;5.60;;
15285;SDS011;7744;52.172;10.668;2023-05-16T01:43:19;8.10;;;5.73;;
15285;SDS011;7744;52.172;10.668;2023-05-16T01:45:50;6.77;;;5.30;;
15285;SDS011;7744;52.172;10.668;2023-05-16T01:48:22;6.13;;;5.30;;
15285;SDS011;7744;52.172;10.668;2023-05-16T01:50:54;5.40;;;4.90;;
15285;SDS011;7744;52.172;10.668;2023-05-16T01:53:23;10.90;;;4.63;;
15285;SDS011;7744;52.172;10.668;2023-05-16T01:55:52;6.63;;;4.30;;
15285;SDS011;7744;52.172;10.668;2023-05-16T01:58:22;5.00;;;4.30;;
15285;SDS011;7744;52.172;10.668;2023-05-16T02:00:52;7.67;;;4.37;;
15285;SDS011;7744;52.172;10.668;2023-05-16T02:03:18;6.28;;;4.53;;
15285;SDS011;7744;52.172;10.668;2023-05-16T02:05:43;5.90;;;4.17;;
15285;SDS011;7744;52.172;10.668;2023-05-16T02:08:09;4.97;;;4.33;;
15285;SDS011;7744;52.172;10.668;2023-05-16T02:10:35;6.10;;;4.30;;
15285;SDS011;7744;52.172;10.668;2023-05-16T02:13:00;6.80;;;4.53;;
15285;SDS011;7744;52.172;10.668;2023-05-16T02:15:26;5.07;;;4.13;;
15285;SDS011;7744;52.172;10.668;2023-05-16T02:17:52;4.67;;;4.13;;
15285;SDS011;7744;52.172;10.668;2023-05-16T02:20:18;5.23;;;3.87;;
15285;SDS011;7744;52.172;10.668;2023-05-16T02:22:43;4.00;;;3.60;;
15285;SDS011;7744;52.172;10.668;2023-05-16T02:25:12;3.97;;;3.13;;
15285;SDS011;7744;52.172;10.668;2023-05-16T02:27:39;4.10;;;3.40;;
15285;SDS011;7744;52.172;10.668;2023-05-16T02:30:05;4.90;;;3.40;;
15285;SDS011;7744;52.172;10.668;2023-05-16T02:32:31;5.37;;;3.60;;
15285;SDS011;7744;52.172;10.668;2023-05-16T02:34:57;5.33;;;3.53;;
15285;SDS011;7744;52.172;10.668;2023-05-16T02:37:23;4.23;;;3.40;;
15285;SDS011;7744;52.172;10.668;2023-05-16T02:39:49;4.23;;;3.37;;
15285;SDS011;7744;52.172;10.668;2023-05-16T02:42:14;3.53;;;3.03;;
15285;SDS011;7744;52.172;10.668;2023-05-16T02:44:40;4.57;;;3.50;;
15285;SDS011;7744;52.172;10.668;2023-05-16T02:47:06;4.10;;;3.17;;
15285;SDS011;7744;52.172;10.668;2023-05-16T02:49:31;4.23;;;3.30;;
15285;SDS011;7744;52.172;10.668;2023-05-16T02:51:57;4.43;;;3.33;;
15285;SDS011;7744;52.172;10.668;2023-05-16T02:54:22;3.77;;;3.43;;
15285;SDS011;7744;52.172;10.668;2023-05-16T02:56:48;3.30;;;3.00;;
15285;SDS011;7744;52.172;10.668;2023-05-16T02:59:13;3.97;;;3.23;;
15285;SDS011;7744;52.172;10.668;2023-05-16T03:01:39;4.55;;;3.45;;
15285;SDS011;7744;52.172;10.668;2023-05-16T03:04:05;4.88;;;3.17;;
15285;SDS011;7744;52.172;10.668;2023-05-16T03:06:30;5.15;;;3.10;;
15285;SDS011;7744;52.172;10.668;2023-05-16T03:08:56;6.47;;;4.03;;
15285;SDS011;7744;52.172;10.668;2023-05-16T03:11:22;5.33;;;3.70;;
15285;SDS011;7744;52.172;10.668;2023-05-16T03:13:48;4.27;;;3.07;;
15285;SDS011;7744;52.172;10.668;2023-05-16T03:16:14;5.87;;;3.20;;
15285;SDS011;7744;52.172;10.668;2023-05-16T03:18:40;3.50;;;3.15;;
15285;SDS011;7744;52.172;10.668;2023-05-16T03:21:06;5.10;;;2.80;;
15285;SDS011;7744;52.172;10.668;2023-05-16T03:23:32;4.30;;;2.80;;
15285;SDS011;7744;52.172;10.668;2023-05-16T03:25:57;4.47;;;3.10;;
15285;SDS011;7744;52.172;10.668;2023-05-16T03:28:23;4.07;;;2.87;;
15285;SDS011;7744;52.172;10.668;2023-05-16T03:30:49;4.57;;;2.90;;
15285;SDS011;7744;52.172;10.668;2023-05-16T03:33:15;5.23;;;2.83;;
15285;SDS011;7744;52.172;10.668;2023-05-16T03:35:40;3.73;;;2.80;;
15285;SDS011;7744;52.172;10.668;2023-05-16T03:38:07;5.43;;;3.00;;
15285;SDS011;7744;52.172;10.668;2023-05-16T03:40:33;4.50;;;2.60;;
15285;SDS011;7744;52.172;10.668;2023-05-16T03:42:58;4.63;;;3.17;;
15285;SDS011;7744;52.172;10.668;2023-05-16T03:45:24;5.80;;;3.70;;
15285;SDS011;7744;52.172;10.668;2023-05-16T03:47:50;3.90;;;2.93;;
15285;SDS011;7744;52.172;10.668;2023-05-16T03:50:15;3.80;;;2.90;;
15285;SDS011;7744;52.172;10.668;2023-05-16T03:52:41;2.70;;;2.33;;
15285;SDS011;7744;52.172;10.668;2023-05-16T03:55:07;5.73;;;2.83;;
15285;SDS011;7744;52.172;10.668;2023-05-16T03:57:33;4.70;;;3.10;;
15285;SDS011;7744;52.172;10.668;2023-05-16T04:00:02;3.60;;;2.70;;
15285;SDS011;7744;52.172;10.668;2023-05-16T04:02:31;5.23;;;3.13;;
15285;SDS011;7744;52.172;10.668;2023-05-16T04:04:57;4.20;;;2.97;;
15285;SDS011;7744;52.172;10.668;2023-05-16T04:07:23;7.73;;;3.00;;
15285;SDS011;7744;52.172;10.668;2023-05-16T04:09:49;4.83;;;2.73;;
15285;SDS011;7744;52.172;10.668;2023-05-16T04:12:15;4.13;;;2.57;;
15285;SDS011;7744;52.172;10.668;2023-05-16T04:14:41;3.67;;;2.47;;
15285;SDS011;7744;52.172;10.668;2023-05-16T04:17:06;4.00;;;2.30;;
15285;SDS011;7744;52.172;10.668;2023-05-16T04:19:32;4.63;;;2.22;;
15285;SDS011;7744;52.172;10.668;2023-05-16T04:21:57;3.70;;;2.17;;
15285;SDS011;7744;52.172;10.668;2023-05-16T04:24:23;3.70;;;2.20;;
15285;SDS011;7744;52.172;10.668;2023-05-16T04:26:50;2.88;;;1.90;;
15285;SDS011;7744;52.172;10.668;2023-05-16T04:29:16;2.77;;;2.10;;
15285;SDS011;7744;52.172;10.668;2023-05-16T04:31:42;4.13;;;2.43;;
15285;SDS011;7744;52.172;10.668;2023-05-16T04:34:07;3.90;;;2.37;;
15285;SDS011;7744;52.172;10.668;2023-05-16T04:36:33;3.37;;;2.67;;
15285;SDS011;7744;52.172;10.668;2023-05-16T04:38:59;3.57;;;2.10;;
15285;SDS011;7744;52.172;10.668;2023-05-16T04:41:25;4.73;;;2.70;;
15285;SDS011;7744;52.172;10.668;2023-05-16T04:43:50;3.60;;;2.20;;
15285;SDS011;7744;52.172;10.668;2023-05-16T04:46:17;4.03;;;2.90;;
15285;SDS011;7744;52.172;10.668;2023-05-16T04:48:44;4.10;;;2.60;;
15285;SDS011;7744;52.172;10.668;2023-05-16T04:51:10;2.47;;;2.27;;
15285;SDS011;7744;52.172;10.668;2023-05-16T04:53:36;4.67;;;2.87;;
15285;SDS011;7744;52.172;10.668;2023-05-16T04:56:01;4.20;;;2.47;;
15285;SDS011;7744;52.172;10.668;2023-05-16T04:58:29;3.53;;;2.90;;
15285;SDS011;7744;52.172;10.668;2023-05-16T05:00:55;3.43;;;2.37;;
15285;SDS011;7744;52.172;10.668;2023-05-16T05:03:20;4.60;;;2.40;;
15285;SDS011;7744;52.172;10.668;2023-05-16T05:05:46;2.90;;;2.60;;
15285;SDS011;7744;52.172;10.668;2023-05-16T05:08:12;3.53;;;2.23;;
15285;SDS011;7744;52.172;10.668;2023-05-16T05:10:38;2.60;;;2.10;;
15285;SDS011;7744;52.172;10.668;2023-05-16T05:13:04;5.97;;;2.30;;
15285;SDS011;7744;52.172;10.668;2023-05-16T05:15:29;3.00;;;1.90;;
15285;SDS011;7744;52.172;10.668;2023-05-16T05:17:55;3.37;;;2.10;;
15285;SDS011;7744;52.172;10.668;2023-05-16T05:20:20;3.03;;;1.90;;
15285;SDS011;7744;52.172;10.668;2023-05-16T05:22:46;3.73;;;1.90;;
15285;SDS011;7744;52.172;10.668;2023-05-16T05:25:12;2.78;;;1.83;;
15285;SDS011;7744;52.172;10.668;2023-05-16T05:27:38;2.88;;;1.95;;
15285;SDS011;7744;52.172;10.668;2023-05-16T05:30:04;4.13;;;1.70;;
15285;SDS011;7744;52.172;10.668;2023-05-16T05:32:30;3.33;;;1.90;;
15285;SDS011;7744;52.172;10.668;2023-05-16T05:34:56;4.35;;;1.67;;
15285;SDS011;7744;52.172;10.668;2023-05-16T05:37:21;4.65;;;1.80;;
15285;SDS011;7744;52.172;10.668;2023-05-16T05:39:47;3.05;;;1.50;;
15285;SDS011;7744;52.172;10.668;2023-05-16T05:42:12;3.10;;;1.33;;
15285;SDS011;7744;52.172;10.668;2023-05-16T05:44:38;5.95;;;1.63;;
15285;SDS011;7744;52.172;10.668;2023-05-16T05:47:04;3.10;;;1.55;;
15285;SDS011;7744;52.172;10.668;2023-05-16T05:49:30;5.05;;;1.70;;
15285;SDS011;7744;52.172;10.668;2023-05-16T05:51:56;4.32;;;1.58;;
15285;SDS011;7744;52.172;10.668;2023-05-16T05:54:22;5.00;;;1.70;;
15285;SDS011;7744;52.172;10.668;2023-05-16T05:56:48;4.38;;;1.52;;
15285;SDS011;7744;52.172;10.668;2023-05-16T05:59:13;4.82;;;1.63;;
15285;SDS011;7744;52.172;10.668;2023-05-16T06:01:39;3.88;;;1.50;;
15285;SDS011;7744;52.172;10.668;2023-05-16T06:04:05;8.50;;;1.58;;
15285;SDS011;7744;52.172;10.668;2023-05-16T06:06:30;2.13;;;1.20;;
15285;SDS011;7744;52.172;10.668;2023-05-16T06:08:57;4.90;;;1.38;;
15285;SDS011;7744;52.172;10.668;2023-05-16T06:11:22;7.93;;;1.65;;
15285;SDS011;7744;52.172;10.668;2023-05-16T06:13:49;6.35;;;1.50;;
15285;SDS011;7744;52.172;10.668;2023-05-16T06:16:15;5.53;;;1.70;;
15285;SDS011;7744;52.172;10.668;2023-05-16T06:18:41;5.88;;;1.48;;
15285;SDS011;7744;52.172;10.668;2023-05-16T06:21:07;3.47;;;1.60;;
15285;SDS011;7744;52.172;10.668;2023-05-16T06:23:32;6.33;;;1.80;;
15285;SDS011;7744;52.172;10.668;2023-05-16T06:25:59;8.10;;;1.60;;
15285;SDS011;7744;52.172;10.668;2023-05-16T06:28:25;5.43;;;2.10;;
15285;SDS011;7744;52.172;10.668;2023-05-16T06:30:51;10.65;;;2.00;;
15285;SDS011;7744;52.172;10.668;2023-05-16T06:33:17;6.53;;;2.00;;
15285;SDS011;7744;52.172;10.668;2023-05-16T06:35:43;7.32;;;2.30;;
15285;SDS011;7744;52.172;10.668;2023-05-16T06:38:09;7.35;;;1.75;;
15285;SDS011;7744;52.172;10.668;2023-05-16T06:40:35;9.80;;;2.08;;
15285;SDS011;7744;52.172;10.668;2023-05-16T06:43:00;7.37;;;2.30;;
15285;SDS011;7744;52.172;10.668;2023-05-16T06:45:26;10.20;;;2.50;;
15285;SDS011;7744;52.172;10.668;2023-05-16T06:47:51;7.65;;;1.65;;
15285;SDS011;7744;52.172;10.668;2023-05-16T06:50:17;7.75;;;2.30;;
15285;SDS011;7744;52.172;10.668;2023-05-16T06:52:42;6.65;;;2.00;;
15285;SDS011;7744;52.172;10.668;2023-05-16T06:55:08;9.52;;;1.83;;
15285;SDS011;7744;52.172;10.668;2023-05-16T06:57:34;9.73;;;1.95;;
15285;SDS011;7744;52.172;10.668;2023-05-16T06:59:59;9.45;;;2.50;;
15285;SDS011;7744;52.172;10.668;2023-05-16T07:02:25;6.97;;;2.53;;
15285;SDS011;7744;52.172;10.668;2023-05-16T07:04:51;9.75;;;1.90;;
15285;SDS011;7744;52.172;10.668;2023-05-16T07:07:17;10.63;;;2.08;;
15285;SDS011;7744;52.172;10.668;2023-05-16T07:09:42;8.38;;;1.83;;
15285;SDS011;7744;52.172;10.668;2023-05-16T07:12:08;6.22;;;1.88;;
15285;SDS011;7744;52.172;10.668;2023-05-16T07:14:33;10.57;;;2.45;;
15285;SDS011;7744;52.172;10.668;2023-05-16T07:16:59;12.90;;;2.70;;
15285;SDS011;7744;52.172;10.668;2023-05-16T07:19:25;6.78;;;2.40;;
15285;SDS011;7744;52.172;10.668;2023-05-16T07:21:51;7.60;;;2.45;;
15285;SDS011;7744;52.172;10.668;2023-05-16T07:24:16;5.63;;;1.77;;
15285;SDS011;7744;52.172;10.668;2023-05-16T07:26:42;8.07;;;1.80;;
15285;SDS011;7744;52.172;10.668;2023-05-16T07:29:07;8.85;;;2.10;;
15285;SDS011;7744;52.172;10.668;2023-05-16T07:31:33;7.45;;;1.70;;
15285;SDS011;7744;52.172;10.668;2023-05-16T07:33:58;4.63;;;1.55;;
15285;SDS011;7744;52.172;10.668;2023-05-16T07:36:24;6.95;;;2.35;;
15285;SDS011;7744;52.172;10.668;2023-05-16T07:38:50;7.85;;;2.08;;
15285;SDS011;7744;52.172;10.668;2023-05-16T07:41:15;7.70;;;1.63;;
15285;SDS011;7744;52.172;10.668;2023-05-16T07:43:41;10.02;;;2.20;;
15285;SDS011;7744;52.172;10.668;2023-05-16T07:46:07;9.75;;;2.50;;
15285;SDS011;7744;52.172;10.668;2023-05-16T07:48:32;8.05;;;1.98;;
15285;SDS011;7744;52.172;10.668;2023-05-16T07:50:58;5.32;;;1.60;;
15285;SDS011;7744;52.172;10.668;2023-05-16T07:53:23;4.95;;;1.50;;
15285;SDS011;7744;52.172;10.668;2023-05-16T07:55:49;7.20;;;2.08;;
15285;SDS011;7744;52.172;10.668;2023-05-16T07:58:15;7.80;;;1.40;;
15285;SDS011;7744;52.172;10.668;2023-05-16T08:00:40;8.32;;;2.38;;
15285;SDS011;7744;52.172;10.668;2023-05-16T08:03:06;6.00;;;1.48;;
15285;SDS011;7744;52.172;10.668;2023-05-16T08:05:31;8.32;;;2.00;;
15285;SDS011;7744;52.172;10.668;2023-05-16T08:07:57;8.30;;;1.70;;
15285;SDS011;7744;52.172;10.668;2023-05-16T08:10:23;5.47;;;1.33;;
15285;SDS011;7744;52.172;10.668;2023-05-16T08:12:48;8.40;;;1.63;;
15285;SDS011;7744;52.172;10.668;2023-05-16T08:15:14;5.82;;;1.45;;
15285;SDS011;7744;52.172;10.668;2023-05-16T08:17:40;8.40;;;1.67;;
15285;SDS011;7744;52.172;10.668;2023-05-16T08:20:05;7.30;;;2.00;;
15285;SDS011;7744;52.172;10.668;2023-05-16T08:22:32;5.93;;;1.70;;
15285;SDS011;7744;52.172;10.668;2023-05-16T08:24:57;8.10;;;1.65;;
15285;SDS011;7744;52.172;10.668;2023-05-16T08:27:24;8.73;;;1.73;;
15285;SDS011;7744;52.172;10.668;2023-05-16T08:29:53;8.15;;;1.95;;
15285;SDS011;7744;52.172;10.668;2023-05-16T08:32:18;7.55;;;1.85;;
15285;SDS011;7744;52.172;10.668;2023-05-16T08:34:45;7.18;;;2.15;;
15285;SDS011;7744;52.172;10.668;2023-05-16T08:37:10;5.25;;;1.65;;
15285;SDS011;7744;52.172;10.668;2023-05-16T08:39:39;7.28;;;1.70;;
15285;SDS011;7744;52.172;10.668;2023-05-16T08:42:05;9.73;;;2.05;;
15285;SDS011;7744;52.172;10.668;2023-05-16T08:44:31;7.78;;;1.83;;
15285;SDS011;7744;52.172;10.668;2023-05-16T08:47:00;8.63;;;1.80;;
15285;SDS011;7744;52.172;10.668;2023-05-16T08:49:34;5.38;;;1.90;;
15285;SDS011;7744;52.172;10.668;2023-05-16T08:52:01;7.22;;;2.10;;
15285;SDS011;7744;52.172;10.668;2023-05-16T08:54:28;9.55;;;1.80;;
15285;SDS011;7744;52.172;10.668;2023-05-16T08:56:54;9.27;;;1.92;;
15285;SDS011;7744;52.172;10.668;2023-05-16T08:59:21;8.00;;;1.80;;
15285;SDS011;7744;52.172;10.668;2023-05-16T09:01:46;6.68;;;1.77;;
15285;SDS011;7744;52.172;10.668;2023-05-16T09:04:12;6.50;;;1.67;;
15285;SDS011;7744;52.172;10.668;2023-05-16T09:06:38;6.18;;;1.67;;
15285;SDS011;7744;52.172;10.668;2023-05-16T09:09:03;6.18;;;1.52;;
15285;SDS011;7744;52.172;10.668;2023-05-16T09:11:31;4.35;;;1.27;;
15285;SDS011;7744;52.172;10.668;2023-05-16T09:13:57;6.68;;;1.50;;
15285;SDS011;7744;52.172;10.668;2023-05-16T09:16:23;4.43;;;1.30;;
15285;SDS011;7744;52.172;10.668;2023-05-16T09:18:53;6.50;;;1.60;;
15285;SDS011;7744;52.172;10.668;2023-05-16T09:21:20;7.82;;;1.73;;
15285;SDS011;7744;52.172;10.668;2023-05-16T09:23:48;3.42;;;1.30;;
15285;SDS011;7744;52.172;10.668;2023-05-16T09:26:14;4.32;;;1.65;;
15285;SDS011;7744;52.172;10.668;2023-05-16T09:28:40;7.47;;;1.50;;
15285;SDS011;7744;52.172;10.668;2023-05-16T09:31:22;6.75;;;1.70;;
15285;SDS011;7744;52.172;10.668;2023-05-16T09:33:57;4.78;;;1.20;;
15285;SDS011;7744;52.172;10.668;2023-05-16T09:36:23;5.10;;;1.30;;
15285;SDS011;7744;52.172;10.668;2023-05-16T09:38:50;5.40;;;1.58;;
15285;SDS011;7744;52.172;10.668;2023-05-16T09:41:16;3.70;;;1.20;;
15285;SDS011;7744;52.172;10.668;2023-05-16T09:43:42;6.13;;;1.40;;
15285;SDS011;7744;52.172;10.668;2023-05-16T09:46:12;2.60;;;0.98;;
15285;SDS011;7744;52.172;10.668;2023-05-16T09:48:47;4.13;;;1.30;;
15285;SDS011;7744;52.172;10.668;2023-05-16T09:51:15;4.53;;;1.17;;
15285;SDS011;7744;52.172;10.668;2023-05-16T09:53:46;4.57;;;1.20;;
15285;SDS011;7744;52.172;10.668;2023-05-16T09:56:12;3.92;;;1.27;;
15285;SDS011;7744;52.172;10.668;2023-05-16T09:58:39;6.53;;;1.20;;
15285;SDS011;7744;52.172;10.668;2023-05-16T10:01:06;5.93;;;1.48;;
15285;SDS011;7744;52.172;10.668;2023-05-16T10:03:33;5.40;;;1.83;;
15285;SDS011;7744;52.172;10.668;2023-05-16T10:06:02;4.25;;;1.05;;
15285;SDS011;7744;52.172;10.668;2023-05-16T10:08:29;4.10;;;1.30;;
15285;SDS011;7744;52.172;10.668;2023-05-16T10:11:00;4.47;;;1.15;;
15285;SDS011;7744;52.172;10.668;2023-05-16T10:13:30;6.75;;;1.88;;
15285;SDS011;7744;52.172;10.668;2023-05-16T10:15:58;7.82;;;1.38;;
15285;SDS011;7744;52.172;10.668;2023-05-16T10:18:28;5.18;;;1.30;;
15285;SDS011;7744;52.172;10.668;2023-05-16T10:20:56;5.13;;;1.15;;
15285;SDS011;7744;52.172;10.668;2023-05-16T10:23:26;5.75;;;1.38;;
15285;SDS011;7744;52.172;10.668;2023-05-16T10:25:52;6.15;;;1.20;;
15285;SDS011;7744;52.172;10.668;2023-05-16T10:28:21;3.78;;;1.23;;
15285;SDS011;7744;52.172;10.668;2023-05-16T10:30:48;6.78;;;1.52;;
15285;SDS011;7744;52.172;10.668;2023-05-16T10:33:16;5.65;;;1.20;;
15285;SDS011;7744;52.172;10.668;2023-05-16T10:35:43;3.05;;;1.42;;
15285;SDS011;7744;52.172;10.668;2023-05-16T10:38:10;6.55;;;2.45;;
15285;SDS011;7744;52.172;10.668;2023-05-16T10:40:39;7.07;;;1.30;;
15285;SDS011;7744;52.172;10.668;2023-05-16T10:43:06;4.55;;;1.20;;
15285;SDS011;7744;52.172;10.668;2023-05-16T10:45:32;4.03;;;1.00;;
15285;SDS011;7744;52.172;10.668;2023-05-16T10:53:11;6.70;;;1.30;;
15285;SDS011;7744;52.172;10.668;2023-05-16T11:06:23;3.58;;;0.98;;
15285;SDS011;7744;52.172;10.668;2023-05-16T11:11:38;4.28;;;1.45;;
15285;SDS011;7744;52.172;10.668;2023-05-16T11:14:06;4.22;;;1.40;;
15285;SDS011;7744;52.172;10.668;2023-05-16T11:16:32;4.28;;;0.90;;
15285;SDS011;7744;52.172;10.668;2023-05-16T11:19:07;3.83;;;0.88;;
15285;SDS011;7744;52.172;10.668;2023-05-16T11:24:52;4.25;;;1.05;;
15285;SDS011;7744;52.172;10.668;2023-05-16T11:29:51;3.13;;;0.90;;
15285;SDS011;7744;52.172;10.668;2023-05-16T11:32:21;3.85;;;1.00;;
15285;SDS011;7744;52.172;10.668;2023-05-16T11:34:47;4.13;;;0.90;;
15285;SDS011;7744;52.172;10.668;2023-05-16T11:37:15;3.08;;;0.93;;
15285;SDS011;7744;52.172;10.668;2023-05-16T11:39:41;3.97;;;1.20;;
15285;SDS011;7744;52.172;10.668;2023-05-16T11:42:07;2.88;;;0.93;;
15285;SDS011;7744;52.172;10.668;2023-05-16T11:44:33;3.10;;;0.73;;
15285;SDS011;7744;52.172;10.668;2023-05-16T11:46:59;6.63;;;1.00;;
15285;SDS011;7744;52.172;10.668;2023-05-16T11:49:26;2.38;;;0.85;;
15285;SDS011;7744;52.172;10.668;2023-05-16T11:51:53;4.97;;;0.95;;
15285;SDS011;7744;52.172;10.668;2023-05-16T11:54:20;3.45;;;1.08;;
15285;SDS011;7744;52.172;10.668;2023-05-16T11:56:46;4.03;;;1.08;;
15285;SDS011;7744;52.172;10.668;2023-05-16T11:59:13;3.30;;;0.85;;
15285;SDS011;7744;52.172;10.668;2023-05-16T12:01:39;6.15;;;1.30;;
15285;SDS011;7744;52.172;10.668;2023-05-16T12:04:12;2.47;;;0.93;;
15285;SDS011;7744;52.172;10.668;2023-05-16T12:06:38;3.08;;;0.98;;
15285;SDS011;7744;52.172;10.668;2023-05-16T12:09:05;4.35;;;1.17;;
15285;SDS011;7744;52.172;10.668;2023-05-16T12:11:38;1.42;;;0.60;;
15285;SDS011;7744;52.172;10.668;2023-05-16T12:14:05;3.20;;;1.08;;
15285;SDS011;7744;52.172;10.668;2023-05-16T12:16:32;3.97;;;1.15;;
15285;SDS011;7744;52.172;10.668;2023-05-16T12:18:59;3.03;;;1.00;;
15285;SDS011;7744;52.172;10.668;2023-05-16T12:21:26;4.40;;;1.23;;
15285;SDS011;7744;52.172;10.668;2023-05-16T12:23:55;3.45;;;1.05;;
15285;SDS011;7744;52.172;10.668;2023-05-16T12:26:24;3.70;;;1.10;;
15285;SDS011;7744;52.172;10.668;2023-05-16T12:28:54;5.68;;;1.10;;
15285;SDS011;7744;52.172;10.668;2023-05-16T12:31:24;3.53;;;0.77;;
15285;SDS011;7744;52.172;10.668;2023-05-16T12:33:53;1.90;;;0.68;;
15285;SDS011;7744;52.172;10.668;2023-05-16T12:36:19;4.57;;;0.95;;
15285;SDS011;7744;52.172;10.668;2023-05-16T12:38:46;4.03;;;0.90;;
15285;SDS011;7744;52.172;10.668;2023-05-16T12:41:16;3.38;;;0.80;;
15285;SDS011;7744;52.172;10.668;2023-05-16T12:43:43;3.45;;;0.90;;
15285;SDS011;7744;52.172;10.668;2023-05-16T12:46:08;5.22;;;0.90;;
15285;SDS011;7744;52.172;10.668;2023-05-16T12:48:36;2.83;;;1.05;;
15285;SDS011;7744;52.172;10.668;2023-05-16T12:51:12;6.53;;;0.85;;
15285;SDS011;7744;52.172;10.668;2023-05-16T12:53:43;4.70;;;0.85;;
15285;SDS011;7744;52.172;10.668;2023-05-16T12:56:11;3.58;;;1.00;;
15285;SDS011;7744;52.172;10.668;2023-05-16T12:58:38;2.58;;;0.82;;
15285;SDS011;7744;52.172;10.668;2023-05-16T13:01:04;2.75;;;0.80;;
15285;SDS011;7744;52.172;10.668;2023-05-16T13:03:30;2.35;;;0.88;;
15285;SDS011;7744;52.172;10.668;2023-05-16T13:05:56;2.22;;;0.88;;
15285;SDS011;7744;52.172;10.668;2023-05-16T13:08:22;6.22;;;1.08;;
15285;SDS011;7744;52.172;10.668;2023-05-16T13:10:48;4.57;;;0.93;;
15285;SDS011;7744;52.172;10.668;2023-05-16T13:13:14;2.03;;;0.85;;
15285;SDS011;7744;52.172;10.668;2023-05-16T13:15:41;4.13;;;0.98;;
15285;SDS011;7744;52.172;10.668;2023-05-16T13:18:06;3.45;;;1.08;;
15285;SDS011;7744;52.172;10.668;2023-05-16T13:20:32;1.55;;;0.65;;
15285;SDS011;7744;52.172;10.668;2023-05-16T13:22:58;2.58;;;0.75;;
15285;SDS011;7744;52.172;10.668;2023-05-16T13:25:23;4.35;;;1.10;;
15285;SDS011;7744;52.172;10.668;2023-05-16T13:27:49;3.53;;;1.00;;
15285;SDS011;7744;52.172;10.668;2023-05-16T13:30:14;2.65;;;0.80;;
15285;SDS011;7744;52.172;10.668;2023-05-16T13:32:40;3.50;;;1.00;;
15285;SDS011;7744;52.172;10.668;2023-05-16T13:35:06;3.95;;;0.75;;
15285;SDS011;7744;52.172;10.668;2023-05-16T13:37:33;5.05;;;1.02;;
15285;SDS011;7744;52.172;10.668;2023-05-16T13:39:59;4.75;;;1.50;;
15285;SDS011;7744;52.172;10.668;2023-05-16T13:42:24;4.45;;;1.10;;
15285;SDS011;7744;52.172;10.668;2023-05-16T13:44:50;2.63;;;1.00;;
15285;SDS011;7744;52.172;10.668;2023-05-16T13:47:16;2.35;;;0.80;;
15285;SDS011;7744;52.172;10.668;2023-05-16T13:49:41;3.67;;;1.00;;
15285;SDS011;7744;52.172;10.668;2023-05-16T13:52:07;4.95;;;0.82;;
15285;SDS011;7744;52.172;10.668;2023-05-16T13:54:33;3.17;;;0.73;;
15285;SDS011;7744;52.172;10.668;2023-05-16T13:56:58;6.05;;;1.08;;
15285;SDS011;7744;52.172;10.668;2023-05-16T13:59:26;1.80;;;0.75;;
15285;SDS011;7744;52.172;10.668;2023-05-16T14:01:51;3.05;;;1.08;;
15285;SDS011;7744;52.172;10.668;2023-05-16T14:04:17;3.28;;;1.10;;
15285;SDS011;7744;52.172;10.668;2023-05-16T14:06:42;2.13;;;1.00;;
15285;SDS011;7744;52.172;10.668;2023-05-16T14:09:08;3.00;;;0.90;;
15285;SDS011;7744;52.172;10.668;2023-05-16T14:11:33;4.30;;;1.42;;
15285;SDS011;7744;52.172;10.668;2023-05-16T14:13:59;3.03;;;1.27;;
15285;SDS011;7744;52.172;10.668;2023-05-16T14:16:24;2.60;;;0.98;;
15285;SDS011;7744;52.172;10.668;2023-05-16T14:18:50;3.42;;;0.90;;
15285;SDS011;7744;52.172;10.668;2023-05-16T14:21:16;4.95;;;1.17;;
15285;SDS011;7744;52.172;10.668;2023-05-16T14:23:41;3.45;;;1.05;;
15285;SDS011;7744;52.172;10.668;2023-05-16T14:26:07;6.18;;;1.10;;
15285;SDS011;7744;52.172;10.668;2023-05-16T14:28:33;3.28;;;1.10;;
15285;SDS011;7744;52.172;10.668;2023-05-16T14:30:58;5.07;;;1.10;;
15285;SDS011;7744;52.172;10.668;2023-05-16T14:33:24;3.50;;;1.30;;
15285;SDS011;7744;52.172;10.668;2023-05-16T14:35:50;2.38;;;0.90;;
15285;SDS011;7744;52.172;10.668;2023-05-16T14:38:16;2.78;;;0.80;;
15285;SDS011;7744;52.172;10.668;2023-05-16T14:40:42;2.28;;;0.70;;
15285;SDS011;7744;52.172;10.668;2023-05-16T14:43:07;3.58;;;0.95;;
15285;SDS011;7744;52.172;10.668;2023-05-16T14:45:33;2.60;;;0.82;;
15285;SDS011;7744;52.172;10.668;2023-05-16T14:47:59;2.97;;;1.00;;
15285;SDS011;7744;52.172;10.668;2023-05-16T14:50:25;3.65;;;0.80;;
15285;SDS011;7744;52.172;10.668;2023-05-16T14:52:50;1.70;;;0.80;;
15285;SDS011;7744;52.172;10.668;2023-05-16T14:55:17;3.47;;;0.80;;
15285;SDS011;7744;52.172;10.668;2023-05-16T14:57:42;2.72;;;1.00;;
15285;SDS011;7744;52.172;10.668;2023-05-16T15:00:08;3.38;;;0.77;;
15285;SDS011;7744;52.172;10.668;2023-05-16T15:02:35;2.22;;;0.82;;
15285;SDS011;7744;52.172;10.668;2023-05-16T15:05:01;1.98;;;0.75;;
15285;SDS011;7744;52.172;10.668;2023-05-16T15:07:26;3.92;;;0.80;;
15285;SDS011;7744;52.172;10.668;2023-05-16T15:09:52;3.10;;;1.15;;
15285;SDS011;7744;52.172;10.668;2023-05-16T15:12:18;2.45;;;0.85;;
15285;SDS011;7744;52.172;10.668;2023-05-16T15:14:43;3.22;;;0.75;;
15285;SDS011;7744;52.172;10.668;2023-05-16T15:17:09;1.92;;;0.80;;